createdAt,value
2023-04-03T00:02:34.864Z,101523.13
2023-04-03T00:07:38.652Z,101529.28
2023-04-03T00:12:44.039Z,101524.94
2023-04-03T00:17:47.718Z,101509.59
2023-04-03T00:22:51.595Z,101515.72
2023-04-03T00:27:57.088Z,101503.28
2023-04-03T00:33:00.940Z,101502.84
2023-04-03T00:38:04.764Z,101507.91
2023-04-03T00:43:14.091Z,101492.69
2023-04-03T00:48:21.782Z,101496.81
2023-04-03T00:53:29.043Z,101505.31
2023-04-03T00:58:39.381Z,101493.44
2023-04-03T01:03:43.365Z,101489.38
2023-04-03T01:08:49.422Z,101478.63
2023-04-03T01:13:54.944Z,101483.34
2023-04-03T01:18:59.234Z,101493.50
2023-04-03T01:24:16.586Z,101491.69
2023-04-03T01:29:21.954Z,101476.66
2023-04-03T01:34:28.573Z,101479.53
2023-04-03T01:39:32.329Z,101474.94
2023-04-03T01:44:36.038Z,101465.06
2023-04-03T01:49:41.402Z,101465.16
2023-04-03T01:54:45.143Z,101471.53
2023-04-03T01:59:48.906Z,101474.97
2023-04-03T02:04:54.322Z,101488.84
2023-04-03T02:09:58.061Z,101474.53
2023-04-03T02:15:01.820Z,101488.81
2023-04-03T02:20:08.351Z,101482.91
2023-04-03T02:25:12.442Z,101478.09
2023-04-03T02:30:17.122Z,101470.31
2023-04-03T02:35:22.580Z,101485.25
2023-04-03T02:40:26.339Z,101490.41
2023-04-03T02:45:30.030Z,101484.59
2023-04-03T02:50:35.734Z,101492.63
2023-04-03T02:55:39.733Z,101481.41
2023-04-03T03:00:43.975Z,101473.03
2023-04-03T03:05:49.329Z,101484.53
2023-04-03T03:10:53.818Z,101483.56
2023-04-03T03:15:57.743Z,101470.88
2023-04-03T03:21:04.192Z,101489.22
2023-04-03T03:26:09.588Z,101479.53
2023-04-03T03:31:13.508Z,101489.09
2023-04-03T03:36:19.097Z,101491.69
2023-04-03T03:41:22.858Z,101492.34
2023-04-03T03:46:26.730Z,101508.81
2023-04-03T03:51:32.112Z,101518.78
2023-04-03T03:56:36.557Z,101511.84
2023-04-03T04:01:40.397Z,101527.69
2023-04-03T04:06:45.887Z,101524.34
2023-04-03T04:11:49.690Z,101523.50
2023-04-03T04:16:53.456Z,101517.41
2023-04-03T04:21:58.848Z,101533.28
2023-04-03T04:27:02.591Z,101526.31
2023-04-03T04:32:06.507Z,101544.66
2023-04-03T04:37:11.917Z,101554.22
2023-04-03T04:42:17.471Z,101558.59
2023-04-03T04:47:21.843Z,101569.00
2023-04-03T04:52:27.205Z,101569.03
2023-04-03T04:57:31.051Z,101569.91
2023-04-03T05:02:34.862Z,101590.75
2023-04-03T05:07:40.286Z,101582.97
2023-04-03T05:12:44.021Z,101576.88
2023-04-03T05:17:47.797Z,101578.66
2023-04-03T05:22:53.197Z,101584.84
2023-04-03T05:27:56.866Z,101568.38
2023-04-03T05:33:01.373Z,101573.59
2023-04-03T05:38:06.949Z,101552.75
2023-04-03T05:43:11.091Z,101560.56
2023-04-03T05:48:14.877Z,101551.94
2023-04-03T05:53:23.814Z,101547.63
2023-04-03T05:58:27.561Z,101559.63
2023-04-03T06:03:31.349Z,101552.75
2023-04-03T06:08:36.777Z,101556.31
2023-04-03T06:13:41.105Z,101561.56
2023-04-03T06:18:44.830Z,101563.34
2023-04-03T06:23:50.171Z,101552.13
2023-04-03T06:28:53.826Z,101543.44
2023-04-03T06:33:57.488Z,101543.47
2023-04-03T06:39:04.060Z,101544.31
2023-04-03T06:44:07.727Z,101527.81
2023-04-03T06:49:11.675Z,101528.75
2023-04-03T06:54:17.009Z,101543.50
2023-04-03T06:59:20.689Z,101553.06
2023-04-03T07:04:24.400Z,101542.63
2023-04-03T07:09:29.736Z,101545.25
2023-04-03T07:14:33.373Z,101563.50
2023-04-03T07:19:37.038Z,101568.72
2023-04-03T07:24:42.460Z,101570.44
2023-04-03T07:29:46.133Z,101562.63
2023-04-03T07:34:49.802Z,101561.78
2023-04-03T07:39:55.238Z,101567.03
2023-04-03T07:44:58.904Z,101565.31
2023-04-03T07:50:02.632Z,101567.00
2023-04-03T07:55:08.938Z,101567.91
2023-04-03T08:00:12.457Z,101575.72
2023-04-03T08:05:16.193Z,101586.13
2023-04-03T08:10:21.560Z,101586.97
2023-04-03T08:15:25.242Z,101585.22
2023-04-03T08:20:29.441Z,101592.19
2023-04-03T08:25:35.184Z,101601.75
2023-04-03T08:30:41.479Z,101602.59
2023-04-03T08:35:45.386Z,101600.84
2023-04-03T08:41:03.087Z,101616.47
2023-04-03T08:46:13.032Z,101608.66
2023-04-03T08:51:19.592Z,101597.41
2023-04-03T08:56:27.409Z,101596.50
2023-04-03T09:01:36.817Z,101611.25
2023-04-03T09:06:42.338Z,101622.47
2023-04-03T09:11:56.984Z,101608.59
2023-04-03T09:17:02.370Z,101607.72
2023-04-03T09:22:18.218Z,101618.13
2023-04-03T09:27:23.572Z,101601.63
2023-04-03T09:32:29.948Z,101601.66
2023-04-03T09:37:41.018Z,101611.16
2023-04-03T09:42:52.005Z,101604.19
2023-04-03T09:48:16.774Z,101588.59
2023-04-03T09:53:30.564Z,101586.84
2023-04-03T09:58:49.756Z,101598.09
2023-04-03T10:04:07.938Z,101596.41
2023-04-03T10:09:21.629Z,101588.56
2023-04-03T10:14:26.952Z,101601.53
2023-04-03T10:19:40.828Z,101592.03
2023-04-03T10:24:59.948Z,101594.66
2023-04-03T10:30:20.565Z,101602.38
2023-04-03T10:35:39.121Z,101590.31
2023-04-03T10:40:52.433Z,101585.06
2023-04-03T10:46:02.277Z,101574.66
2023-04-03T10:51:18.161Z,101593.69
2023-04-03T10:56:31.111Z,101591.13
2023-04-03T11:01:42.380Z,101583.25
2023-04-03T11:06:51.285Z,101579.75
2023-04-03T11:12:02.412Z,101580.59
2023-04-03T11:17:20.761Z,101569.34
2023-04-03T11:22:28.505Z,101558.97
2023-04-03T11:27:40.253Z,101541.59
2023-04-03T11:33:03.944Z,101528.59
2023-04-03T11:38:08.067Z,101538.13
2023-04-03T11:43:24.466Z,101531.19
2023-04-03T11:48:54.312Z,101542.41
2023-04-03T11:54:44.012Z,101549.34
2023-04-03T11:59:48.738Z,101557.88
2023-04-03T12:05:30.238Z,101566.56
2023-04-03T12:10:35.634Z,101581.22
2023-04-03T12:15:52.261Z,101574.31
2023-04-03T12:20:56.024Z,101592.50
2023-04-03T12:26:19.967Z,101607.16
2023-04-03T12:31:27.148Z,101614.88
2023-04-03T12:36:41.730Z,101612.34
2023-04-03T12:41:58.070Z,101635.72
2023-04-03T12:47:03.797Z,101631.41
2023-04-03T12:52:18.499Z,101640.88
2023-04-03T12:57:27.234Z,101641.75
2023-04-03T13:02:32.649Z,101631.38
2023-04-03T13:07:39.014Z,101638.25
2023-04-03T13:12:54.330Z,101640.75
2023-04-03T13:17:58.521Z,101658.84
2023-04-03T13:23:04.795Z,101657.13
2023-04-03T13:28:14.569Z,101658.84
2023-04-03T13:33:24.262Z,101676.13
2023-04-03T13:38:30.152Z,101667.41
2023-04-03T13:43:37.765Z,101677.81
2023-04-03T13:48:42.971Z,101684.63
2023-04-03T13:53:50.510Z,101689.75
2023-04-03T13:59:16.235Z,101694.91
2023-04-03T14:04:22.265Z,101684.59
2023-04-03T14:09:27.793Z,101673.28
2023-04-03T14:14:35.045Z,101674.13
2023-04-03T14:19:38.938Z,101681.25
2023-04-03T14:24:42.642Z,101689.31
2023-04-03T14:29:48.446Z,101688.59
2023-04-03T14:34:53.017Z,101681.78
2023-04-03T14:39:57.823Z,101694.06
2023-04-03T14:45:04.446Z,101685.56
2023-04-03T14:50:13.216Z,101683.97
2023-04-03T14:55:19.436Z,101695.34
2023-04-03T15:00:24.957Z,101701.47
2023-04-03T15:05:28.728Z,101714.44
2023-04-03T15:10:33.269Z,101708.31
2023-04-03T15:15:39.515Z,101699.47
2023-04-03T15:20:43.622Z,101688.72
2023-04-03T15:25:48.538Z,101693.81
2023-04-03T15:30:54.041Z,101688.28
2023-04-03T15:36:06.642Z,101703.69
2023-04-03T15:41:11.482Z,101720.31
2023-04-03T15:46:16.972Z,101726.06
2023-04-03T15:51:20.718Z,101737.72
2023-04-03T15:56:24.406Z,101752.09
2023-04-03T16:01:29.865Z,101744.09
2023-04-03T16:06:33.659Z,101716.28
2023-04-03T16:11:37.343Z,101730.84
2023-04-03T16:16:42.765Z,101728.31
2023-04-03T16:21:46.432Z,101722.59
2023-04-03T16:26:50.046Z,101734.97
2023-04-03T16:31:55.549Z,101725.75
2023-04-03T16:36:59.379Z,101730.78
2023-04-03T16:42:03.411Z,101729.75
2023-04-03T16:47:09.320Z,101732.81
2023-04-03T16:52:12.206Z,101736.47
2023-04-03T16:57:15.851Z,101713.97
2023-04-03T17:02:21.807Z,101729.84
2023-04-03T17:07:26.656Z,101739.41
2023-04-03T17:12:30.340Z,101752.81
2023-04-03T17:17:36.216Z,101747.28
2023-04-03T17:22:39.139Z,101761.38
2023-04-03T17:27:42.816Z,101757.06
2023-04-03T17:32:49.174Z,101760.31
2023-04-03T17:37:52.873Z,101778.50
2023-04-03T17:42:56.588Z,101767.19
2023-04-03T17:48:01.985Z,101773.13
2023-04-03T17:53:05.729Z,101772.53
2023-04-03T17:58:09.433Z,101770.25
2023-04-03T18:03:14.771Z,101773.38
2023-04-03T18:08:18.500Z,101792.06
2023-04-03T18:13:22.200Z,101779.59
2023-04-03T18:18:28.494Z,101778.06
2023-04-03T18:23:34.514Z,101786.50
2023-04-03T18:28:39.344Z,101767.47
2023-04-03T18:33:44.736Z,101763.75
2023-04-03T18:38:48.489Z,101761.09
2023-04-03T18:43:52.319Z,101770.97
2023-04-03T18:48:58.356Z,101769.94
2023-04-03T18:54:02.724Z,101747.94
2023-04-03T18:59:07.087Z,101738.16
2023-04-03T19:04:12.694Z,101733.81
2023-04-03T19:09:16.820Z,101730.25
2023-04-03T19:14:20.541Z,101735.75
2023-04-03T19:19:25.943Z,101746.66
2023-04-03T19:24:29.600Z,101762.38
2023-04-03T19:29:33.251Z,101747.44
2023-04-03T19:34:38.549Z,101739.09
2023-04-03T19:39:42.241Z,101737.34
2023-04-03T19:44:46.662Z,101733.72
2023-04-03T19:49:52.992Z,101742.06
2023-04-03T19:54:56.607Z,101729.28
2023-04-03T20:00:00.256Z,101736.22
2023-04-03T20:05:06.048Z,101725.44
2023-04-03T20:10:10.644Z,101724.84
2023-04-03T20:15:14.543Z,101724.78
2023-04-03T20:20:19.943Z,101715.19
2023-04-03T20:25:43.760Z,101717.09
2023-04-03T20:30:48.206Z,101724.22
2023-04-03T20:35:53.631Z,101722.03
2023-04-03T20:40:57.334Z,101734.53
2023-04-03T20:46:01.712Z,101724.56
2023-04-03T20:51:13.738Z,101725.44
2023-04-03T20:56:17.666Z,101714.91
2023-04-03T21:01:22.641Z,101718.94
2023-04-03T21:07:02.963Z,101715.78
2023-04-03T21:12:42.872Z,101715.50
2023-04-03T21:18:07.112Z,101720.19
2023-04-03T21:23:10.786Z,101702.22
2023-04-03T21:28:14.474Z,101705.41
2023-04-03T21:33:19.750Z,101709.81
2023-04-03T21:38:23.438Z,101701.56
2023-04-03T21:43:27.097Z,101699.03
2023-04-03T21:48:32.379Z,101705.00
2023-04-03T21:53:36.055Z,101687.78
2023-04-03T21:58:39.769Z,101674.88
2023-04-03T22:03:46.057Z,101688.53
2023-04-03T22:08:49.693Z,101671.38
2023-04-03T22:13:54.160Z,101665.34
2023-04-03T22:19:00.396Z,101676.16
2023-04-03T22:24:04.160Z,101674.13
2023-04-03T22:29:07.777Z,101668.13
2023-04-03T22:34:13.217Z,101656.88
2023-04-03T22:39:16.822Z,101661.59
2023-04-03T22:44:20.488Z,101660.16
2023-04-03T22:49:26.815Z,101678.63
2023-04-03T22:54:30.473Z,101668.81
2023-04-03T22:59:34.134Z,101667.44
2023-04-03T23:04:39.469Z,101645.78
2023-04-03T23:09:43.132Z,101643.53
2023-04-03T23:14:46.806Z,101638.38
2023-04-03T23:19:52.097Z,101640.56
2023-04-03T23:24:55.778Z,101651.66
2023-04-03T23:30:02.124Z,101653.69
2023-04-03T23:35:08.193Z,101653.25
2023-04-03T23:40:12.804Z,101643.66
2023-04-03T23:45:16.604Z,101657.44
2023-04-03T23:50:21.920Z,101649.63
2023-04-03T23:55:25.651Z,101649.03
